Inspiration — C6FM5 — position and weather

sailwx.info

Track history (hours):
 
Tides and Currents Weather Stations Pressure Air Temp Water Temp Dewpoint Dewpoint Depression Visibility Wind Speed Wind Dir Waves Ship Positions

Inspiration

Operator: Carnival Cruise Lines

Last reported at 2017-Aug-20 18:27 UTC. Time now 2017-Aug-20 20:44 UTC.
Position N 31°52' W 117°25'.

Type: Ship. MMSI: 309484000.

Date/timePositionNaut miles runAvg speedWind from/ knotsBaromVisibWave heightAir tempDewpointWater temp
2017-Aug-20 18:27N 31°52' W 117°25'4 7.8
2017-Aug-20 17:56N 31°52' W 117°30'3 7.6
2017-Aug-20 17:29N 31°52' W 117°33'5 7.5
2017-Aug-20 16:51N 31°52' W 117°39'3 7.5
2017-Aug-20 16:31N 31°52' W 117°42'611.1
2017-Aug-20 16:01N 31°52' W 117°49'611.7
2017-Aug-20 15:30N 31°51' W 117°56'511.1
2017-Aug-20 15:00N 31°51' W 118°02'3199.7
2017-Aug-20 15:00N 31°48' W 118°00'4 7.6 270 / 71015.2 5.4 17.015.421.0
2017-Aug-20 14:31N 31°47' W 118°04'5 7.8
2017-Aug-20 13:55N 31°43' W 118°06'3 7.8
2017-Aug-20 13:30N 31°40' W 118°08'4 7.5
2017-Aug-20 13:00N 31°37' W 118°10'4 7.3
2017-Aug-20 12:31N 31°33' W 118°11'3 6.8
2017-Aug-20 12:00N 31°31' W 118°08'4 7.1
2017-Aug-20 11:30N 31°31' W 118°04'3 7.0
2017-Aug-20 11:01N 31°31' W 118°00'7 6.9
2017-Aug-20 10:01N 31°34' W 117°53'0 6.3
2017-Aug-20 09:59N 31°34' W 117°53'3 6.3
2017-Aug-20 09:30N 31°36' W 117°51'3 6.7
2017-Aug-20 09:00N 31°39' W 117°53'3 6.3
2017-Aug-20 08:31N 31°41' W 117°55'4 7.0
2017-Aug-20 08:00N 31°45' W 117°53'510.5
2017-Aug-20 07:30N 31°45' W 117°47'610.9
2017-Aug-20 06:56N 31°46' W 117°40'511.3
2017-Aug-20 06:30N 31°46' W 117°34'511.0
2017-Aug-20 06:01N 31°47' W 117°28'611.0
2017-Aug-20 05:30N 31°47' W 117°21'1010.8
2017-Aug-20 04:33N 31°49' W 117°09'110.8
2017-Aug-20 04:29N 31°49' W 117°09'510.5
2017-Aug-20 04:00N 31°49' W 117°03'610.3
2017-Aug-20 03:28N 31°49' W 116°56'5 9.5
2017-Aug-20 03:00N 31°50' W 116°51'3 0.2
2017-Aug-19 11:03N 31°53' W 116°51'111.8
2017-Aug-19 11:00N 31°54' W 116°51'611.7
2017-Aug-19 10:30N 31°57' W 116°57'611.8
2017-Aug-19 09:58N 31°59' W 117°04'612.2
2017-Aug-19 09:28N 32°01' W 117°11'612.2
2017-Aug-19 09:00N 32°03' W 117°17'815.6
2017-Aug-19 08:30N 32°06' W 117°26'815.5
2017-Aug-19 08:01N 32°10' W 117°33'816.2
2017-Aug-19 07:30N 32°18' W 117°37'816.3
2017-Aug-19 07:01N 32°25' W 117°41'816.2
2017-Aug-19 06:31N 32°33' W 117°44'815.9
2017-Aug-19 06:00N 32°40' W 117°48'816.1
2017-Aug-19 05:30N 32°48' W 117°51'816.5
2017-Aug-19 05:00N 32°55' W 117°55'917.0
2017-Aug-19 04:30N 33°03' W 117°59'816.8
2017-Aug-19 04:00N 33°11' W 118°02'815.0
2017-Aug-19 03:31N 33°18' W 118°06'714.5
2017-Aug-19 03:00N 33°25' W 118°09'713.8
2017-Aug-19 02:30N 33°31' W 118°11'611.5
2017-Aug-19 02:00N 33°37' W 118°13'510.5
2017-Aug-19 01:30N 33°42' W 118°11'3 5.4
2017-Aug-19 00:58N 33°45' W 118°11'0 0.0
2017-Aug-19 00:28N 33°45' W 118°11'0 0.0
2017-Aug-19 00:00N 33°45' W 118°11'0 0.0
2017-Aug-18 23:30N 33°45' W 118°11'0 0.0
2017-Aug-18 23:00N 33°45' W 118°11'0 0.0
2017-Aug-18 22:30N 33°45' W 118°11'0 0.0
2017-Aug-18 21:59N 33°45' W 118°11'0 0.0
2017-Aug-18 21:29N 33°45' W 118°11'0 0.0
2017-Aug-18 20:59N 33°45' W 118°11'0 0.0
2017-Aug-18 20:29N 33°45' W 118°11'0 0.0
2017-Aug-18 19:59N 33°45' W 118°11'0 0.0
2017-Aug-18 19:28N 33°45' W 118°11'0 0.0
2017-Aug-18 18:58N 33°45' W 118°11'0 0.0
2017-Aug-18 18:28N 33°45' W 118°11'0 0.0
2017-Aug-18 17:58N 33°45' W 118°11'0 0.0
2017-Aug-18 17:28N 33°45' W 118°11'0 0.0
2017-Aug-18 17:00N 33°45' W 118°11'0 0.0
2017-Aug-18 16:27N 33°45' W 118°11'0 0.0
2017-Aug-18 16:00N 33°45' W 118°11'0 0.0
2017-Aug-18 15:30N 33°45' W 118°11'0 0.0
2017-Aug-18 15:00N 33°45' W 118°11'0 0.0
2017-Aug-18 13:59N 33°45' W 118°11'0 0.0
2017-Aug-18 13:29N 33°45' W 118°11'0 0.0
2017-Aug-18 12:59N 33°45' W 118°11'0 0.3
2017-Aug-18 12:28N 33°45' W 118°11'1 2.2
2017-Aug-18 12:00N 33°44' W 118°11'5 9.2
2017-Aug-18 11:30N 33°39' W 118°10'3 6.7
2017-Aug-18 11:00N 33°36' W 118°10'4 8.4
2017-Aug-18 10:30N 33°32' W 118°08'4 8.3
2017-Aug-18 10:00N 33°28' W 118°06'4 8.2
2017-Aug-18 09:30N 33°24' W 118°05'4 8.0
2017-Aug-18 09:00N 33°20' W 118°03'4 8.1
2017-Aug-18 08:31N 33°17' W 118°02'4 8.2
2017-Aug-18 08:01N 33°13' W 118°01'4 7.4
2017-Aug-18 07:30N 33°09' W 117°59'4 7.9
2017-Aug-18 07:01N 33°06' W 117°57'4 7.8
2017-Aug-18 06:30N 33°02' W 117°55'4 7.4
2017-Aug-18 06:01N 32°59' W 117°54'4 7.2
2017-Aug-18 05:30N 32°55' W 117°52'4 7.0
2017-Aug-18 05:01N 32°52' W 117°51'3 6.8
2017-Aug-18 04:31N 32°49' W 117°49'4 7.1
2017-Aug-18 04:01N 32°46' W 117°48'4 7.1
2017-Aug-18 03:31N 32°42' W 117°47'4 7.4
2017-Aug-18 03:01N 32°39' W 117°44'4 7.5
2017-Aug-18 02:31N 32°36' W 117°42'4 7.3
2017-Aug-18 02:01N 32°32' W 117°40'3171.0
2017-Aug-18 02:00N 32°30' W 117°42'2 4.0 100 / 141014.210.8 19.015.922.0
2017-Aug-18 01:31N 32°29' W 117°40'4 7.0
2017-Aug-18 01:01N 32°25' W 117°40'4 7.1
2017-Aug-18 00:31N 32°22' W 117°39'3 6.9
2017-Aug-18 00:01N 32°19' W 117°38'3 7.0
2017-Aug-17 23:31N 32°15' W 117°38'3 5.7
2017-Aug-17 23:01N 32°12' W 117°38'3 6.5
2017-Aug-17 22:30N 32°09' W 117°38'3 6.7
2017-Aug-17 22:00N 32°06' W 117°39'3 6.6
2017-Aug-17 21:30N 32°03' W 117°39'3 6.9
2017-Aug-17 21:00N 31°59' W 117°39'3 7.0
2017-Aug-17 20:30N 31°56' W 117°39'3 6.9
2017-Aug-17 20:01N 31°52' W 117°40'4 7.1
2017-Aug-17 19:30N 31°49' W 117°40'4 7.1
2017-Aug-17 19:01N 31°47' W 117°44'4 7.7
2017-Aug-17 18:30N 31°47' W 117°48'4 7.8
2017-Aug-17 18:01N 31°46' W 117°53'4 7.8
2017-Aug-17 17:31N 31°45' W 117°57'4 7.4
2017-Aug-17 17:01N 31°42' W 118°00'4 8.1
2017-Aug-17 16:30N 31°38' W 118°00'4 7.3
2017-Aug-17 16:01N 31°40' W 117°56'5 9.2
2017-Aug-17 15:31N 31°43' W 118°00'510.8
2017-Aug-17 15:00N 31°43' W 118°06'7516.3
2017-Aug-17 15:00N 31°36' W 118°06'510.4 300 / 171017.2 5.4 21.010.920.0
2017-Aug-17 14:31N 31°40' W 118°09'3 7.0
2017-Aug-17 14:01N 31°37' W 118°11'4 7.0
2017-Aug-17 13:30N 31°34' W 118°13'3 6.5
2017-Aug-17 13:01N 31°31' W 118°12'3 6.7
2017-Aug-17 12:31N 31°31' W 118°08'3 6.6
2017-Aug-17 12:00N 31°31' W 118°04'3 6.8
2017-Aug-17 11:31N 31°31' W 118°00'4 7.1
2017-Aug-17 11:01N 31°31' W 117°56'4 7.2
2017-Aug-17 10:30N 31°31' W 117°52'3 6.8
2017-Aug-17 10:01N 31°33' W 117°49'3 6.7
2017-Aug-17 09:31N 31°36' W 117°51'3 6.9
2017-Aug-17 09:00N 31°39' W 117°54'3 6.8
2017-Aug-17 08:31N 31°42' W 117°55'5 9.3
2017-Aug-17 08:00N 31°45' W 117°51'510.6
2017-Aug-17 07:31N 31°45' W 117°45'510.9
2017-Aug-17 07:00N 31°46' W 117°38'510.7
2017-Aug-17 06:31N 31°47' W 117°32'510.6
2017-Aug-17 06:01N 31°47' W 117°26'510.8
2017-Aug-17 05:30N 31°48' W 117°20'610.8
2017-Aug-17 04:59N 31°48' W 117°13'510.9
2017-Aug-17 04:30N 31°49' W 117°07'510.4
2017-Aug-17 04:01N 31°49' W 117°01'510.1
2017-Aug-17 03:30N 31°50' W 116°55'6 9.8
2017-Aug-17 02:56N 31°50' W 116°48'4 9.4
2017-Aug-17 02:30N 31°50' W 116°43'4 8.1
2017-Aug-17 01:59N 31°49' W 116°39'1 0.0
2017-Aug-16 14:08N 31°50' W 116°38'110.0
2017-Aug-16 14:00N 31°50' W 116°40'5 7.7
2017-Aug-16 13:23N 31°51' W 116°45'4 9.3
2017-Aug-16 13:00N 31°53' W 116°48'5 9.0
2017-Aug-16 12:28N 31°55' W 116°54'4 8.9
2017-Aug-16 12:00N 31°57' W 116°58'4 8.9
2017-Aug-16 11:30N 31°58' W 117°03'4 8.9
2017-Aug-16 11:01N 31°59' W 117°08'5 9.1
2017-Aug-16 10:30N 32°00' W 117°13'5 9.0
2017-Aug-16 10:00N 32°02' W 117°18'5 9.2
2017-Aug-16 09:30N 32°05' W 117°23'5 9.2
2017-Aug-16 09:00N 32°07' W 117°27'4 9.0
2017-Aug-16 08:31N 32°09' W 117°32'5 9.1
2017-Aug-16 08:00N 32°13' W 117°35'4 9.0
2017-Aug-16 07:30N 32°17' W 117°37'5 9.5
2017-Aug-16 07:00N 32°21' W 117°40'510.1
2017-Aug-16 06:31N 32°25' W 117°43'510.1
2017-Aug-16 06:00N 32°30' W 117°45'510.3
2017-Aug-16 05:31N 32°34' W 117°48'510.3
2017-Aug-16 05:01N 32°39' W 117°51'510.1
2017-Aug-16 04:30N 32°44' W 117°54'510.0
2017-Aug-16 04:00N 32°48' W 117°56'5 9.9
2017-Aug-16 03:30N 32°52' W 117°59'510.0
2017-Aug-16 03:00N 32°57' W 118°02'510.0
2017-Aug-16 02:30N 33°01' W 118°04'5 9.8
2017-Aug-16 02:00N 33°06' W 118°07'5 9.7
2017-Aug-16 01:30N 33°10' W 118°10'5 9.1
2017-Aug-16 01:01N 33°14' W 118°12'4 8.6
2017-Aug-16 00:31N 33°18' W 118°14'4 8.6
2017-Aug-16 00:00N 33°21' W 118°18'1 1.1
2017-Aug-15 23:28N 33°21' W 118°19'0 0.1
2017-Aug-15 22:55N 33°21' W 118°19'0 0.1
2017-Aug-15 22:28N 33°21' W 118°19'0 0.0
2017-Aug-15 21:58N 33°21' W 118°19'0 0.0
2017-Aug-15 21:27N 33°21' W 118°19'0 0.1
2017-Aug-15 21:00N 33°21' W 118°19'0 0.1
2017-Aug-15 20:30N 33°21' W 118°19'0 0.1
2017-Aug-15 20:00N 33°21' W 118°19'0 0.0
2017-Aug-15 19:29N 33°21' W 118°19'0 0.1
2017-Aug-15 18:59N 33°21' W 118°19'0 0.1
2017-Aug-15 18:29N 33°21' W 118°19'0 0.1
2017-Aug-15 17:59N 33°21' W 118°19'0 0.0
2017-Aug-15 17:29N 33°21' W 118°19'0 0.0
2017-Aug-15 16:58N 33°21' W 118°19'0 0.0
2017-Aug-15 16:28N 33°21' W 118°19'0 0.0
2017-Aug-15 15:58N 33°21' W 118°19'0 0.0
2017-Aug-15 15:28N 33°21' W 118°19'0 0.0
2017-Aug-15 14:58N 33°21' W 118°19'0 0.1
2017-Aug-15 14:31N 33°21' W 118°19'0 0.9
2017-Aug-15 14:00N 33°21' W 118°19'3 6.8
2017-Aug-15 13:30N 33°18' W 118°17'4 7.9
2017-Aug-15 13:00N 33°14' W 118°16'4 7.7
2017-Aug-15 12:30N 33°10' W 118°16'4 7.5
2017-Aug-15 12:00N 33°06' W 118°15'4 7.9
2017-Aug-15 11:31N 33°03' W 118°12'4 7.7
2017-Aug-15 11:00N 33°00' W 118°10'4 7.6
2017-Aug-15 10:30N 32°57' W 118°07'4 7.6
2017-Aug-15 10:00N 32°54' W 118°05'4 7.6
2017-Aug-15 09:30N 32°51' W 118°02'4 7.5
2017-Aug-15 09:00N 32°48' W 117°59'3 6.6
2017-Aug-15 08:30N 32°48' W 117°55'4 7.4
2017-Aug-15 08:01N 32°52' W 117°55'4 7.6
2017-Aug-15 07:31N 32°55' W 117°56'4 7.4
2017-Aug-15 07:00N 32°59' W 117°58'4 7.3
2017-Aug-15 06:30N 33°02' W 117°59'3 6.9
2017-Aug-15 06:01N 33°05' W 118°00'3 6.8
2017-Aug-15 05:30N 33°09' W 118°02'3 6.8
2017-Aug-15 05:00N 33°12' W 118°03'4 8.2
2017-Aug-15 04:31N 33°16' W 118°05'510.2
2017-Aug-15 04:00N 33°21' W 118°07'510.3
2017-Aug-15 03:30N 33°25' W 118°09'510.4
2017-Aug-15 03:01N 33°30' W 118°11'510.8
2017-Aug-15 02:30N 33°35' W 118°13'5 9.9
2017-Aug-15 02:00N 33°40' W 118°12'4 8.7
2017-Aug-15 01:30N 33°44' W 118°11'1 1.4
2017-Aug-15 00:58N 33°45' W 118°11'0 0.0
2017-Aug-15 00:28N 33°45' W 118°11'0 0.0
2017-Aug-14 23:58N 33°45' W 118°11'0 0.0
2017-Aug-14 23:28N 33°45' W 118°11'0 0.0
2017-Aug-14 23:00N 33°45' W 118°11'0 0.0
2017-Aug-14 22:30N 33°45' W 118°11'0 0.0
2017-Aug-14 21:57N 33°45' W 118°11'0 0.0
2017-Aug-14 21:27N 33°45' W 118°11'0 0.0
2017-Aug-14 20:58N 33°45' W 118°11'0 0.0
2017-Aug-14 20:25N 33°45' W 118°11'0 0.0
2017-Aug-14 20:00N 33°45' W 118°11'0 0.0
2017-Aug-14 19:30N 33°45' W 118°11'0 0.0
2017-Aug-14 19:00N 33°45' W 118°11'0 0.0
2017-Aug-14 18:30N 33°45' W 118°11'0 0.0
2017-Aug-14 17:54N 33°45' W 118°11'0 0.0
2017-Aug-14 17:26N 33°45' W 118°11'0 0.0
2017-Aug-14 16:59N 33°45' W 118°11'0 0.0
2017-Aug-14 16:26N 33°45' W 118°11'0 0.0
2017-Aug-14 15:56N 33°45' W 118°11'0 0.0
2017-Aug-14 15:26N 33°45' W 118°11'0 0.0
2017-Aug-14 14:13N 33°45' W 118°11'0 0.0
2017-Aug-14 13:58N 33°45' W 118°11'0 0.0
2017-Aug-14 13:28N 33°45' W 118°11'0 0.0
2017-Aug-14 13:00N 33°45' W 118°11'0 0.0
2017-Aug-14 12:30N 33°45' W 118°11'1 1.6
2017-Aug-14 12:00N 33°44' W 118°11'4 9.0
2017-Aug-14 11:30N 33°40' W 118°11'4 7.3
2017-Aug-14 11:00N 33°36' W 118°10'4 8.9
2017-Aug-14 10:30N 33°32' W 118°08'4 8.9
2017-Aug-14 10:00N 33°28' W 118°06'4 8.9
2017-Aug-14 09:30N 33°24' W 118°04'4 8.9
2017-Aug-14 09:00N 33°20' W 118°02'4 8.9
2017-Aug-14 08:30N 33°15' W 118°01'5 9.0
2017-Aug-14 08:00N 33°11' W 117°59'4 8.5
2017-Aug-14 07:30N 33°07' W 117°57'4 8.7
2017-Aug-14 07:01N 33°03' W 117°56'4 8.4
2017-Aug-14 06:30N 32°59' W 117°53'4 7.8
2017-Aug-14 06:00N 32°55' W 117°52'4 7.8
2017-Aug-14 05:31N 32°52' W 117°51'4 7.2
2017-Aug-14 05:00N 32°48' W 117°49'4 7.3
2017-Aug-14 04:30N 32°45' W 117°48'4 7.1
2017-Aug-14 04:00N 32°42' W 117°46'3 6.9
2017-Aug-14 03:30N 32°38' W 117°45'3 6.7
2017-Aug-14 03:00N 32°35' W 117°43'3 6.5
2017-Aug-14 02:30N 32°32' W 117°42'3 6.6
2017-Aug-14 02:00N 32°29' W 117°41'4 7.0
2017-Aug-14 01:30N 32°26' W 117°40'4 7.0
2017-Aug-14 01:00N 32°22' W 117°39'3 7.0
2017-Aug-14 00:30N 32°19' W 117°37'3 6.6
2017-Aug-14 00:00N 32°16' W 117°35'3 6.7
2017-Aug-13 23:30N 32°14' W 117°33'3 6.8
2017-Aug-13 23:00N 32°11' W 117°30'3 6.8
2017-Aug-13 22:30N 32°08' W 117°28'3 6.7
2017-Aug-13 22:00N 32°05' W 117°26'3 6.7
2017-Aug-13 21:30N 32°03' W 117°23'3 6.6
2017-Aug-13 21:00N 32°00' W 117°21'3 6.6
2017-Aug-13 20:30N 31°57' W 117°19'3 6.8
2017-Aug-13 20:00N 31°55' W 117°17'3 6.7
2017-Aug-13 19:30N 31°52' W 117°19'4 7.5
2017-Aug-13 19:00N 31°52' W 117°23'4 7.4
2017-Aug-13 18:30N 31°52' W 117°28'4 7.4
2017-Aug-13 18:00N 31°52' W 117°32'4 7.6
2017-Aug-13 17:30N 31°52' W 117°36'4 7.6
2017-Aug-13 17:00N 31°52' W 117°41'4 7.5
2017-Aug-13 16:30N 31°52' W 117°45'511.0
2017-Aug-13 16:00N 31°51' W 117°52'510.9
2017-Aug-13 15:30N 31°51' W 117°58'510.0
2017-Aug-13 15:00N 31°49' W 118°03'8470.9
2017-Aug-13 15:00N 31°42' W 118°00'611.6 310 / 101015.2 5.4 18.014.820.0
2017-Aug-13 14:30N 31°45' W 118°05'4 7.9
2017-Aug-13 14:00N 31°42' W 118°07'4 7.6
2017-Aug-13 13:30N 31°38' W 118°09'4 7.5
2017-Aug-13 13:00N 31°35' W 118°11'3 6.6
2017-Aug-13 12:30N 31°31' W 118°10'3 6.8
2017-Aug-13 12:00N 31°31' W 118°06'4 7.0
2017-Aug-13 11:30N 31°31' W 118°02'3 6.6
2017-Aug-13 11:00N 31°31' W 117°58'3 6.6
2017-Aug-13 10:30N 31°31' W 117°54'3 6.7
2017-Aug-13 10:00N 31°32' W 117°50'3 6.4
2017-Aug-13 09:30N 31°35' W 117°50'3 6.6
2017-Aug-13 09:00N 31°37' W 117°52'3 6.8
2017-Aug-13 08:30N 31°40' W 117°54'4 7.1
2017-Aug-13 08:00N 31°43' W 117°55'7454.2
2017-Aug-13 08:00N 31°36' W 117°54'1019.9 300 / 101018.3 5.4 20.016.920.0
2017-Aug-13 07:30N 31°45' W 117°50'5 9.8
2017-Aug-13 07:00N 31°46' W 117°44'510.8
2017-Aug-13 06:30N 31°46' W 117°38'611.1
2017-Aug-13 06:00N 31°47' W 117°32'611.1
2017-Aug-13 05:30N 31°47' W 117°25'611.2
2017-Aug-13 05:00N 31°48' W 117°18'611.4
2017-Aug-13 04:30N 31°48' W 117°12'510.7
2017-Aug-13 04:00N 31°49' W 117°06'510.5
2017-Aug-13 03:30N 31°49' W 116°59'5 9.6
2017-Aug-13 02:56N 31°50' W 116°53'4 9.2
2017-Aug-13 02:30N 31°50' W 116°48'5 8.4
2017-Aug-13 01:57N 31°50' W 116°43'6 0.4
2017-Aug-12 13:28N 31°53' W 116°48'612.2
2017-Aug-12 12:59N 31°55' W 116°55'612.2
2017-Aug-12 12:30N 31°57' W 117°01'612.2
2017-Aug-12 12:00N 31°59' W 117°08'612.1
2017-Aug-12 11:30N 32°01' W 117°15'612.0
2017-Aug-12 11:00N 32°03' W 117°21'612.2
2017-Aug-12 10:30N 32°06' W 117°28'612.0
2017-Aug-12 10:00N 32°10' W 117°33'612.1
2017-Aug-12 09:30N 32°16' W 117°36'611.9
2017-Aug-12 09:00N 32°21' W 117°39'612.0
2017-Aug-12 08:30N 32°27' W 117°41'612.0
2017-Aug-12 08:00N 32°32' W 117°44'611.7
2017-Aug-12 07:30N 32°38' W 117°46'611.7
2017-Aug-12 07:00N 32°43' W 117°49'611.9
2017-Aug-12 06:30N 32°49' W 117°52'612.0
2017-Aug-12 06:00N 32°54' W 117°54'612.1
2017-Aug-12 05:30N 32°60' W 117°57'612.0
2017-Aug-12 05:00N 33°05' W 117°60'611.8
2017-Aug-12 04:30N 33°11' W 118°02'612.0
2017-Aug-12 04:00N 33°16' W 118°05'611.7
2017-Aug-12 03:30N 33°22' W 118°07'611.5
2017-Aug-12 03:00N 33°27' W 118°10'611.6
2017-Aug-12 02:30N 33°33' W 118°12'611.0
2017-Aug-12 02:00N 33°38' W 118°12'5 9.7
2017-Aug-12 01:30N 33°43' W 118°11'2 4.2
2017-Aug-12 01:00N 33°45' W 118°11'0 0.0
2017-Aug-12 00:30N 33°45' W 118°11'0 0.0
2017-Aug-12 00:00N 33°45' W 118°11'0 0.0
2017-Aug-11 23:30N 33°45' W 118°11'0 0.0
2017-Aug-11 22:59N 33°45' W 118°11'0 0.0
2017-Aug-11 22:29N 33°45' W 118°11'0 0.0
2017-Aug-11 21:59N 33°45' W 118°11'0 0.0
2017-Aug-11 21:29N 33°45' W 118°11'0 0.0
2017-Aug-11 20:58N 33°45' W 118°11'0 0.0
2017-Aug-11 20:28N 33°45' W 118°11'0 0.0
2017-Aug-11 20:00N 33°45' W 118°11'0 0.0
2017-Aug-11 19:31N 33°45' W 118°11'0 0.0
2017-Aug-11 19:01N 33°45' W 118°11'0 0.0
2017-Aug-11 18:31N 33°45' W 118°11'0 0.0
2017-Aug-11 18:01N 33°45' W 118°11'0 0.0
2017-Aug-11 17:31N 33°45' W 118°11'0 0.4
2017-Aug-11 17:00N 33°45' W 118°11'0 0.0
2017-Aug-11 16:30N 33°45' W 118°11'0 0.4
2017-Aug-11 15:58N 33°45' W 118°11'0 0.0
2017-Aug-11 15:22N 33°45' W 118°11'0 0.0
2017-Aug-11 14:58N 33°45' W 118°11'0 0.0
2017-Aug-11 13:58N 33°45' W 118°11'0 0.0
2017-Aug-11 13:30N 33°45' W 118°11'0 0.0
2017-Aug-11 13:00N 33°45' W 118°11'0 0.3
2017-Aug-11 12:30N 33°45' W 118°11'1 1.2
2017-Aug-11 12:00N 33°44' W 118°11'5 9.2
2017-Aug-11 11:30N 33°40' W 118°11'4 7.4
2017-Aug-11 11:00N 33°36' W 118°10'4 7.3
2017-Aug-11 10:30N 33°33' W 118°08'4 7.2
2017-Aug-11 10:00N 33°29' W 118°07'3 6.9
2017-Aug-11 09:30N 33°26' W 118°06'3 6.8
2017-Aug-11 09:00N 33°23' W 118°04'4 7.0
2017-Aug-11 08:30N 33°20' W 118°03'3 6.9
2017-Aug-11 08:00N 33°16' W 118°01'3 6.9
2017-Aug-11 07:30N 33°13' W 117°60'4 7.6
2017-Aug-11 07:00N 33°10' W 117°58'4 8.8
2017-Aug-11 06:30N 33°05' W 117°57'4 8.7
2017-Aug-11 06:00N 33°01' W 117°55'4 8.7
2017-Aug-11 05:30N 32°57' W 117°53'4 8.6
2017-Aug-11 05:00N 32°53' W 117°51'4 8.4
2017-Aug-11 04:30N 32°49' W 117°50'4 8.3
2017-Aug-11 04:00N 32°45' W 117°48'4 8.3
2017-Aug-11 03:30N 32°41' W 117°46'4 8.3
2017-Aug-11 03:00N 32°38' W 117°44'4 8.1
2017-Aug-11 02:30N 32°34' W 117°43'4 7.9
2017-Aug-11 02:00N 32°30' W 117°42'8508.5
2017-Aug-11 02:00N 32°24' W 117°36'4 8.7 320 / 151015.2 5.4 18.014.823.0
2017-Aug-11 01:30N 32°26' W 117°40'4 8.0
2017-Aug-11 01:00N 32°22' W 117°39'4 7.6
2017-Aug-11 00:30N 32°19' W 117°37'4 7.7
2017-Aug-11 00:00N 32°15' W 117°35'4 7.9
2017-Aug-10 23:30N 32°12' W 117°33'4 7.9
2017-Aug-10 23:00N 32°08' W 117°31'4 8.0
2017-Aug-10 22:30N 32°05' W 117°29'4 7.3
2017-Aug-10 22:00N 32°02' W 117°27'4 7.4
2017-Aug-10 21:30N 31°58' W 117°25'4 7.3
2017-Aug-10 21:00N 31°55' W 117°23'4 7.3
2017-Aug-10 20:30N 31°51' W 117°22'4 7.7
2017-Aug-10 20:00N 31°49' W 117°26'4 8.5
2017-Aug-10 19:30N 31°48' W 117°31'4 8.5
2017-Aug-10 19:00N 31°47' W 117°35'4 8.5
2017-Aug-10 18:30N 31°46' W 117°40'  
Track history (hours):
 
Tides and Currents Weather Stations Pressure Air Temp Water Temp Dewpoint Dewpoint Depression Visibility Wind Speed Wind Dir Waves Ship Positions

Inspiration

Operator: Carnival Cruise Lines

Last reported at 2017-Aug-20 18:27 UTC. Time now 2017-Aug-20 20:44 UTC.
Position N 31°52' W 117°25'.

Type: Ship. MMSI: 309484000.

Date/timePositionNaut miles runAvg speedWind from/ knotsBaromVisibWave heightAir tempDewpointWater temp
2017-Aug-20 18:27N 31°52' W 117°25'4 7.8
2017-Aug-20 17:56N 31°52' W 117°30'3 7.6
2017-Aug-20 17:29N 31°52' W 117°33'5 7.5
2017-Aug-20 16:51N 31°52' W 117°39'3 7.5
2017-Aug-20 16:31N 31°52' W 117°42'611.1
2017-Aug-20 16:01N 31°52' W 117°49'611.7
2017-Aug-20 15:30N 31°51' W 117°56'511.1
2017-Aug-20 15:00N 31°51' W 118°02'3199.7
2017-Aug-20 15:00N 31°48' W 118°00'4 7.6 270 / 71015.2 5.4 17.015.421.0
2017-Aug-20 14:31N 31°47' W 118°04'5 7.8
2017-Aug-20 13:55N 31°43' W 118°06'3 7.8
2017-Aug-20 13:30N 31°40' W 118°08'4 7.5
2017-Aug-20 13:00N 31°37' W 118°10'4 7.3
2017-Aug-20 12:31N 31°33' W 118°11'3 6.8
2017-Aug-20 12:00N 31°31' W 118°08'4 7.1
2017-Aug-20 11:30N 31°31' W 118°04'3 7.0
2017-Aug-20 11:01N 31°31' W 118°00'7 6.9
2017-Aug-20 10:01N 31°34' W 117°53'0 6.3
2017-Aug-20 09:59N 31°34' W 117°53'3 6.3
2017-Aug-20 09:30N 31°36' W 117°51'3 6.7
2017-Aug-20 09:00N 31°39' W 117°53'3 6.3
2017-Aug-20 08:31N 31°41' W 117°55'4 7.0
2017-Aug-20 08:00N 31°45' W 117°53'510.5
2017-Aug-20 07:30N 31°45' W 117°47'610.9
2017-Aug-20 06:56N 31°46' W 117°40'511.3
2017-Aug-20 06:30N 31°46' W 117°34'511.0
2017-Aug-20 06:01N 31°47' W 117°28'611.0
2017-Aug-20 05:30N 31°47' W 117°21'1010.8
2017-Aug-20 04:33N 31°49' W 117°09'110.8
2017-Aug-20 04:29N 31°49' W 117°09'510.5
2017-Aug-20 04:00N 31°49' W 117°03'610.3
2017-Aug-20 03:28N 31°49' W 116°56'5 9.5
2017-Aug-20 03:00N 31°50' W 116°51'3 0.2
2017-Aug-19 11:03N 31°53' W 116°51'111.8
2017-Aug-19 11:00N 31°54' W 116°51'611.7
2017-Aug-19 10:30N 31°57' W 116°57'611.8
2017-Aug-19 09:58N 31°59' W 117°04'612.2
2017-Aug-19 09:28N 32°01' W 117°11'612.2
2017-Aug-19 09:00N 32°03' W 117°17'815.6
2017-Aug-19 08:30N 32°06' W 117°26'815.5
2017-Aug-19 08:01N 32°10' W 117°33'816.2
2017-Aug-19 07:30N 32°18' W 117°37'816.3
2017-Aug-19 07:01N 32°25' W 117°41'816.2
2017-Aug-19 06:31N 32°33' W 117°44'815.9
2017-Aug-19 06:00N 32°40' W 117°48'816.1
2017-Aug-19 05:30N 32°48' W 117°51'816.5
2017-Aug-19 05:00N 32°55' W 117°55'917.0
2017-Aug-19 04:30N 33°03' W 117°59'816.8
2017-Aug-19 04:00N 33°11' W 118°02'815.0
2017-Aug-19 03:31N 33°18' W 118°06'714.5
2017-Aug-19 03:00N 33°25' W 118°09'713.8
2017-Aug-19 02:30N 33°31' W 118°11'611.5
2017-Aug-19 02:00N 33°37' W 118°13'510.5
2017-Aug-19 01:30N 33°42' W 118°11'3 5.4
2017-Aug-19 00:58N 33°45' W 118°11'0 0.0
2017-Aug-19 00:28N 33°45' W 118°11'0 0.0
2017-Aug-19 00:00N 33°45' W 118°11'0 0.0
2017-Aug-18 23:30N 33°45' W 118°11'0 0.0
2017-Aug-18 23:00N 33°45' W 118°11'0 0.0
2017-Aug-18 22:30N 33°45' W 118°11'0 0.0
2017-Aug-18 21:59N 33°45' W 118°11'0 0.0
2017-Aug-18 21:29N 33°45' W 118°11'0 0.0
2017-Aug-18 20:59N 33°45' W 118°11'0 0.0
2017-Aug-18 20:29N 33°45' W 118°11'0 0.0
2017-Aug-18 19:59N 33°45' W 118°11'0 0.0
2017-Aug-18 19:28N 33°45' W 118°11'0 0.0
2017-Aug-18 18:58N 33°45' W 118°11'0 0.0
2017-Aug-18 18:28N 33°45' W 118°11'0 0.0
2017-Aug-18 17:58N 33°45' W 118°11'0 0.0
2017-Aug-18 17:28N 33°45' W 118°11'0 0.0
2017-Aug-18 17:00N 33°45' W 118°11'0 0.0
2017-Aug-18 16:27N 33°45' W 118°11'0 0.0
2017-Aug-18 16:00N 33°45' W 118°11'0 0.0
2017-Aug-18 15:30N 33°45' W 118°11'0 0.0
2017-Aug-18 15:00N 33°45' W 118°11'0 0.0
2017-Aug-18 13:59N 33°45' W 118°11'0 0.0
2017-Aug-18 13:29N 33°45' W 118°11'0 0.0
2017-Aug-18 12:59N 33°45' W 118°11'0 0.3
2017-Aug-18 12:28N 33°45' W 118°11'1 2.2
2017-Aug-18 12:00N 33°44' W 118°11'5 9.2
2017-Aug-18 11:30N 33°39' W 118°10'3 6.7
2017-Aug-18 11:00N 33°36' W 118°10'4 8.4
2017-Aug-18 10:30N 33°32' W 118°08'4 8.3
2017-Aug-18 10:00N 33°28' W 118°06'4 8.2
2017-Aug-18 09:30N 33°24' W 118°05'4 8.0
2017-Aug-18 09:00N 33°20' W 118°03'4 8.1
2017-Aug-18 08:31N 33°17' W 118°02'4 8.2
2017-Aug-18 08:01N 33°13' W 118°01'4 7.4
2017-Aug-18 07:30N 33°09' W 117°59'4 7.9
2017-Aug-18 07:01N 33°06' W 117°57'4 7.8
2017-Aug-18 06:30N 33°02' W 117°55'4 7.4
2017-Aug-18 06:01N 32°59' W 117°54'4 7.2
2017-Aug-18 05:30N 32°55' W 117°52'4 7.0
2017-Aug-18 05:01N 32°52' W 117°51'3 6.8
2017-Aug-18 04:31N 32°49' W 117°49'4 7.1
2017-Aug-18 04:01N 32°46' W 117°48'4 7.1
2017-Aug-18 03:31N 32°42' W 117°47'4 7.4
2017-Aug-18 03:01N 32°39' W 117°44'4 7.5
2017-Aug-18 02:31N 32°36' W 117°42'4 7.3
2017-Aug-18 02:01N 32°32' W 117°40'3171.0
2017-Aug-18 02:00N 32°30' W 117°42'2 4.0 100 / 141014.210.8 19.015.922.0
2017-Aug-18 01:31N 32°29' W 117°40'4 7.0
2017-Aug-18 01:01N 32°25' W 117°40'4 7.1
2017-Aug-18 00:31N 32°22' W 117°39'3 6.9
2017-Aug-18 00:01N 32°19' W 117°38'3 7.0
2017-Aug-17 23:31N 32°15' W 117°38'3 5.7
2017-Aug-17 23:01N 32°12' W 117°38'3 6.5
2017-Aug-17 22:30N 32°09' W 117°38'3 6.7
2017-Aug-17 22:00N 32°06' W 117°39'3 6.6
2017-Aug-17 21:30N 32°03' W 117°39'3 6.9
2017-Aug-17 21:00N 31°59' W 117°39'3 7.0
2017-Aug-17 20:30N 31°56' W 117°39'3 6.9
2017-Aug-17 20:01N 31°52' W 117°40'4 7.1
2017-Aug-17 19:30N 31°49' W 117°40'4 7.1
2017-Aug-17 19:01N 31°47' W 117°44'4 7.7
2017-Aug-17 18:30N 31°47' W 117°48'4 7.8
2017-Aug-17 18:01N 31°46' W 117°53'4 7.8
2017-Aug-17 17:31N 31°45' W 117°57'4 7.4
2017-Aug-17 17:01N 31°42' W 118°00'4 8.1
2017-Aug-17 16:30N 31°38' W 118°00'4 7.3
2017-Aug-17 16:01N 31°40' W 117°56'5 9.2
2017-Aug-17 15:31N 31°43' W 118°00'510.8
2017-Aug-17 15:00N 31°43' W 118°06'7516.3
2017-Aug-17 15:00N 31°36' W 118°06'510.4 300 / 171017.2 5.4 21.010.920.0
2017-Aug-17 14:31N 31°40' W 118°09'3 7.0
2017-Aug-17 14:01N 31°37' W 118°11'4 7.0
2017-Aug-17 13:30N 31°34' W 118°13'3 6.5
2017-Aug-17 13:01N 31°31' W 118°12'3 6.7
2017-Aug-17 12:31N 31°31' W 118°08'3 6.6
2017-Aug-17 12:00N 31°31' W 118°04'3 6.8
2017-Aug-17 11:31N 31°31' W 118°00'4 7.1
2017-Aug-17 11:01N 31°31' W 117°56'4 7.2
2017-Aug-17 10:30N 31°31' W 117°52'3 6.8
2017-Aug-17 10:01N 31°33' W 117°49'3 6.7
2017-Aug-17 09:31N 31°36' W 117°51'3 6.9
2017-Aug-17 09:00N 31°39' W 117°54'3 6.8
2017-Aug-17 08:31N 31°42' W 117°55'5 9.3
2017-Aug-17 08:00N 31°45' W 117°51'510.6
2017-Aug-17 07:31N 31°45' W 117°45'510.9
2017-Aug-17 07:00N 31°46' W 117°38'510.7
2017-Aug-17 06:31N 31°47' W 117°32'510.6
2017-Aug-17 06:01N 31°47' W 117°26'510.8
2017-Aug-17 05:30N 31°48' W 117°20'610.8
2017-Aug-17 04:59N 31°48' W 117°13'510.9
2017-Aug-17 04:30N 31°49' W 117°07'510.4
2017-Aug-17 04:01N 31°49' W 117°01'510.1
2017-Aug-17 03:30N 31°50' W 116°55'6 9.8
2017-Aug-17 02:56N 31°50' W 116°48'4 9.4
2017-Aug-17 02:30N 31°50' W 116°43'4 8.1
2017-Aug-17 01:59N 31°49' W 116°39'1 0.0
2017-Aug-16 14:08N 31°50' W 116°38'110.0
2017-Aug-16 14:00N 31°50' W 116°40'5 7.7
2017-Aug-16 13:23N 31°51' W 116°45'4 9.3
2017-Aug-16 13:00N 31°53' W 116°48'5 9.0
2017-Aug-16 12:28N 31°55' W 116°54'4 8.9
2017-Aug-16 12:00N 31°57' W 116°58'4 8.9
2017-Aug-16 11:30N 31°58' W 117°03'4 8.9
2017-Aug-16 11:01N 31°59' W 117°08'5 9.1
2017-Aug-16 10:30N 32°00' W 117°13'5 9.0
2017-Aug-16 10:00N 32°02' W 117°18'5 9.2
2017-Aug-16 09:30N 32°05' W 117°23'5 9.2
2017-Aug-16 09:00N 32°07' W 117°27'4 9.0
2017-Aug-16 08:31N 32°09' W 117°32'5 9.1
2017-Aug-16 08:00N 32°13' W 117°35'4 9.0
2017-Aug-16 07:30N 32°17' W 117°37'5 9.5
2017-Aug-16 07:00N 32°21' W 117°40'510.1
2017-Aug-16 06:31N 32°25' W 117°43'510.1
2017-Aug-16 06:00N 32°30' W 117°45'510.3
2017-Aug-16 05:31N 32°34' W 117°48'510.3
2017-Aug-16 05:01N 32°39' W 117°51'510.1
2017-Aug-16 04:30N 32°44' W 117°54'510.0
2017-Aug-16 04:00N 32°48' W 117°56'5 9.9
2017-Aug-16 03:30N 32°52' W 117°59'510.0
2017-Aug-16 03:00N 32°57' W 118°02'510.0
2017-Aug-16 02:30N 33°01' W 118°04'5 9.8
2017-Aug-16 02:00N 33°06' W 118°07'5 9.7
2017-Aug-16 01:30N 33°10' W 118°10'5 9.1
2017-Aug-16 01:01N 33°14' W 118°12'4 8.6
2017-Aug-16 00:31N 33°18' W 118°14'4 8.6
2017-Aug-16 00:00N 33°21' W 118°18'1 1.1
2017-Aug-15 23:28N 33°21' W 118°19'0 0.1
2017-Aug-15 22:55N 33°21' W 118°19'0 0.1
2017-Aug-15 22:28N 33°21' W 118°19'0 0.0
2017-Aug-15 21:58N 33°21' W 118°19'0 0.0
2017-Aug-15 21:27N 33°21' W 118°19'0 0.1
2017-Aug-15 21:00N 33°21' W 118°19'0 0.1
2017-Aug-15 20:30N 33°21' W 118°19'0 0.1
2017-Aug-15 20:00N 33°21' W 118°19'0 0.0
2017-Aug-15 19:29N 33°21' W 118°19'0 0.1
2017-Aug-15 18:59N 33°21' W 118°19'0 0.1
2017-Aug-15 18:29N 33°21' W 118°19'0 0.1
2017-Aug-15 17:59N 33°21' W 118°19'0 0.0
2017-Aug-15 17:29N 33°21' W 118°19'0 0.0
2017-Aug-15 16:58N 33°21' W 118°19'0 0.0
2017-Aug-15 16:28N 33°21' W 118°19'0 0.0
2017-Aug-15 15:58N 33°21' W 118°19'0 0.0
2017-Aug-15 15:28N 33°21' W 118°19'0 0.0
2017-Aug-15 14:58N 33°21' W 118°19'0 0.1
2017-Aug-15 14:31N 33°21' W 118°19'0 0.9
2017-Aug-15 14:00N 33°21' W 118°19'3 6.8
2017-Aug-15 13:30N 33°18' W 118°17'4 7.9
2017-Aug-15 13:00N 33°14' W 118°16'4 7.7
2017-Aug-15 12:30N 33°10' W 118°16'4 7.5
2017-Aug-15 12:00N 33°06' W 118°15'4 7.9
2017-Aug-15 11:31N 33°03' W 118°12'4 7.7
2017-Aug-15 11:00N 33°00' W 118°10'4 7.6
2017-Aug-15 10:30N 32°57' W 118°07'4 7.6
2017-Aug-15 10:00N 32°54' W 118°05'4 7.6
2017-Aug-15 09:30N 32°51' W 118°02'4 7.5
2017-Aug-15 09:00N 32°48' W 117°59'3 6.6
2017-Aug-15 08:30N 32°48' W 117°55'4 7.4
2017-Aug-15 08:01N 32°52' W 117°55'4 7.6
2017-Aug-15 07:31N 32°55' W 117°56'4 7.4
2017-Aug-15 07:00N 32°59' W 117°58'4 7.3
2017-Aug-15 06:30N 33°02' W 117°59'3 6.9
2017-Aug-15 06:01N 33°05' W 118°00'3 6.8
2017-Aug-15 05:30N 33°09' W 118°02'3 6.8
2017-Aug-15 05:00N 33°12' W 118°03'4 8.2
2017-Aug-15 04:31N 33°16' W 118°05'510.2
2017-Aug-15 04:00N 33°21' W 118°07'510.3
2017-Aug-15 03:30N 33°25' W 118°09'510.4
2017-Aug-15 03:01N 33°30' W 118°11'510.8
2017-Aug-15 02:30N 33°35' W 118°13'5 9.9
2017-Aug-15 02:00N 33°40' W 118°12'4 8.7
2017-Aug-15 01:30N 33°44' W 118°11'1 1.4
2017-Aug-15 00:58N 33°45' W 118°11'0 0.0
2017-Aug-15 00:28N 33°45' W 118°11'0 0.0
2017-Aug-14 23:58N 33°45' W 118°11'0 0.0
2017-Aug-14 23:28N 33°45' W 118°11'0 0.0
2017-Aug-14 23:00N 33°45' W 118°11'0 0.0
2017-Aug-14 22:30N 33°45' W 118°11'0 0.0
2017-Aug-14 21:57N 33°45' W 118°11'0 0.0
2017-Aug-14 21:27N 33°45' W 118°11'0 0.0
2017-Aug-14 20:58N 33°45' W 118°11'0 0.0
2017-Aug-14 20:25N 33°45' W 118°11'0 0.0
2017-Aug-14 20:00N 33°45' W 118°11'0 0.0
2017-Aug-14 19:30N 33°45' W 118°11'0 0.0
2017-Aug-14 19:00N 33°45' W 118°11'0 0.0
2017-Aug-14 18:30N 33°45' W 118°11'0 0.0
2017-Aug-14 17:54N 33°45' W 118°11'0 0.0
2017-Aug-14 17:26N 33°45' W 118°11'0 0.0
2017-Aug-14 16:59N 33°45' W 118°11'0 0.0
2017-Aug-14 16:26N 33°45' W 118°11'0 0.0
2017-Aug-14 15:56N 33°45' W 118°11'0 0.0
2017-Aug-14 15:26N 33°45' W 118°11'0 0.0
2017-Aug-14 14:13N 33°45' W 118°11'0 0.0
2017-Aug-14 13:58N 33°45' W 118°11'0 0.0
2017-Aug-14 13:28N 33°45' W 118°11'0 0.0
2017-Aug-14 13:00N 33°45' W 118°11'0 0.0
2017-Aug-14 12:30N 33°45' W 118°11'1 1.6
2017-Aug-14 12:00N 33°44' W 118°11'4 9.0
2017-Aug-14 11:30N 33°40' W 118°11'4 7.3
2017-Aug-14 11:00N 33°36' W 118°10'4 8.9
2017-Aug-14 10:30N 33°32' W 118°08'4 8.9
2017-Aug-14 10:00N 33°28' W 118°06'4 8.9
2017-Aug-14 09:30N 33°24' W 118°04'4 8.9
2017-Aug-14 09:00N 33°20' W 118°02'4 8.9
2017-Aug-14 08:30N 33°15' W 118°01'5 9.0
2017-Aug-14 08:00N 33°11' W 117°59'4 8.5
2017-Aug-14 07:30N 33°07' W 117°57'4 8.7
2017-Aug-14 07:01N 33°03' W 117°56'4 8.4
2017-Aug-14 06:30N 32°59' W 117°53'4 7.8
2017-Aug-14 06:00N 32°55' W 117°52'4 7.8
2017-Aug-14 05:31N 32°52' W 117°51'4 7.2
2017-Aug-14 05:00N 32°48' W 117°49'4 7.3
2017-Aug-14 04:30N 32°45' W 117°48'4 7.1
2017-Aug-14 04:00N 32°42' W 117°46'3 6.9
2017-Aug-14 03:30N 32°38' W 117°45'3 6.7
2017-Aug-14 03:00N 32°35' W 117°43'3 6.5
2017-Aug-14 02:30N 32°32' W 117°42'3 6.6
2017-Aug-14 02:00N 32°29' W 117°41'4 7.0
2017-Aug-14 01:30N 32°26' W 117°40'4 7.0
2017-Aug-14 01:00N 32°22' W 117°39'3 7.0
2017-Aug-14 00:30N 32°19' W 117°37'3 6.6
2017-Aug-14 00:00N 32°16' W 117°35'3 6.7
2017-Aug-13 23:30N 32°14' W 117°33'3 6.8
2017-Aug-13 23:00N 32°11' W 117°30'3 6.8
2017-Aug-13 22:30N 32°08' W 117°28'3 6.7
2017-Aug-13 22:00N 32°05' W 117°26'3 6.7
2017-Aug-13 21:30N 32°03' W 117°23'3 6.6
2017-Aug-13 21:00N 32°00' W 117°21'3 6.6
2017-Aug-13 20:30N 31°57' W 117°19'3 6.8
2017-Aug-13 20:00N 31°55' W 117°17'3 6.7
2017-Aug-13 19:30N 31°52' W 117°19'4 7.5
2017-Aug-13 19:00N 31°52' W 117°23'4 7.4
2017-Aug-13 18:30N 31°52' W 117°28'4 7.4
2017-Aug-13 18:00N 31°52' W 117°32'4 7.6
2017-Aug-13 17:30N 31°52' W 117°36'4 7.6
2017-Aug-13 17:00N 31°52' W 117°41'4 7.5
2017-Aug-13 16:30N 31°52' W 117°45'511.0
2017-Aug-13 16:00N 31°51' W 117°52'510.9
2017-Aug-13 15:30N 31°51' W 117°58'510.0
2017-Aug-13 15:00N 31°49' W 118°03'8470.9
2017-Aug-13 15:00N 31°42' W 118°00'611.6 310 / 101015.2 5.4 18.014.820.0
2017-Aug-13 14:30N 31°45' W 118°05'4 7.9
2017-Aug-13 14:00N 31°42' W 118°07'4 7.6
2017-Aug-13 13:30N 31°38' W 118°09'4 7.5
2017-Aug-13 13:00N 31°35' W 118°11'3 6.6
2017-Aug-13 12:30N 31°31' W 118°10'3 6.8
2017-Aug-13 12:00N 31°31' W 118°06'4 7.0
2017-Aug-13 11:30N 31°31' W 118°02'3 6.6
2017-Aug-13 11:00N 31°31' W 117°58'3 6.6
2017-Aug-13 10:30N 31°31' W 117°54'3 6.7
2017-Aug-13 10:00N 31°32' W 117°50'3 6.4
2017-Aug-13 09:30N 31°35' W 117°50'3 6.6
2017-Aug-13 09:00N 31°37' W 117°52'3 6.8
2017-Aug-13 08:30N 31°40' W 117°54'4 7.1
2017-Aug-13 08:00N 31°43' W 117°55'7454.2
2017-Aug-13 08:00N 31°36' W 117°54'1019.9 300 / 101018.3 5.4 20.016.920.0
2017-Aug-13 07:30N 31°45' W 117°50'5 9.8
2017-Aug-13 07:00N 31°46' W 117°44'510.8
2017-Aug-13 06:30N 31°46' W 117°38'611.1
2017-Aug-13 06:00N 31°47' W 117°32'611.1
2017-Aug-13 05:30N 31°47' W 117°25'611.2
2017-Aug-13 05:00N 31°48' W 117°18'611.4
2017-Aug-13 04:30N 31°48' W 117°12'510.7
2017-Aug-13 04:00N 31°49' W 117°06'510.5
2017-Aug-13 03:30N 31°49' W 116°59'5 9.6
2017-Aug-13 02:56N 31°50' W 116°53'4 9.2
2017-Aug-13 02:30N 31°50' W 116°48'5 8.4
2017-Aug-13 01:57N 31°50' W 116°43'6 0.4
2017-Aug-12 13:28N 31°53' W 116°48'612.2
2017-Aug-12 12:59N 31°55' W 116°55'612.2
2017-Aug-12 12:30N 31°57' W 117°01'612.2
2017-Aug-12 12:00N 31°59' W 117°08'612.1
2017-Aug-12 11:30N 32°01' W 117°15'612.0
2017-Aug-12 11:00N 32°03' W 117°21'612.2
2017-Aug-12 10:30N 32°06' W 117°28'612.0
2017-Aug-12 10:00N 32°10' W 117°33'612.1
2017-Aug-12 09:30N 32°16' W 117°36'611.9
2017-Aug-12 09:00N 32°21' W 117°39'612.0
2017-Aug-12 08:30N 32°27' W 117°41'612.0
2017-Aug-12 08:00N 32°32' W 117°44'611.7
2017-Aug-12 07:30N 32°38' W 117°46'611.7
2017-Aug-12 07:00N 32°43' W 117°49'611.9
2017-Aug-12 06:30N 32°49' W 117°52'612.0
2017-Aug-12 06:00N 32°54' W 117°54'612.1
2017-Aug-12 05:30N 32°60' W 117°57'612.0
2017-Aug-12 05:00N 33°05' W 117°60'611.8
2017-Aug-12 04:30N 33°11' W 118°02'612.0
2017-Aug-12 04:00N 33°16' W 118°05'611.7
2017-Aug-12 03:30N 33°22' W 118°07'611.5
2017-Aug-12 03:00N 33°27' W 118°10'611.6
2017-Aug-12 02:30N 33°33' W 118°12'611.0
2017-Aug-12 02:00N 33°38' W 118°12'5 9.7
2017-Aug-12 01:30N 33°43' W 118°11'2 4.2
2017-Aug-12 01:00N 33°45' W 118°11'0 0.0
2017-Aug-12 00:30N 33°45' W 118°11'0 0.0
2017-Aug-12 00:00N 33°45' W 118°11'0 0.0
2017-Aug-11 23:30N 33°45' W 118°11'0 0.0
2017-Aug-11 22:59N 33°45' W 118°11'0 0.0
2017-Aug-11 22:29N 33°45' W 118°11'0 0.0
2017-Aug-11 21:59N 33°45' W 118°11'0 0.0
2017-Aug-11 21:29N 33°45' W 118°11'0 0.0
2017-Aug-11 20:58N 33°45' W 118°11'0 0.0
2017-Aug-11 20:28N 33°45' W 118°11'0 0.0
2017-Aug-11 20:00N 33°45' W 118°11'0 0.0
2017-Aug-11 19:31N 33°45' W 118°11'0 0.0
2017-Aug-11 19:01N 33°45' W 118°11'0 0.0
2017-Aug-11 18:31N 33°45' W 118°11'0 0.0
2017-Aug-11 18:01N 33°45' W 118°11'0 0.0
2017-Aug-11 17:31N 33°45' W 118°11'0 0.4
2017-Aug-11 17:00N 33°45' W 118°11'0 0.0
2017-Aug-11 16:30N 33°45' W 118°11'0 0.4
2017-Aug-11 15:58N 33°45' W 118°11'0 0.0
2017-Aug-11 15:22N 33°45' W 118°11'0 0.0
2017-Aug-11 14:58N 33°45' W 118°11'0 0.0
2017-Aug-11 13:58N 33°45' W 118°11'0 0.0
2017-Aug-11 13:30N 33°45' W 118°11'0 0.0
2017-Aug-11 13:00N 33°45' W 118°11'0 0.3
2017-Aug-11 12:30N 33°45' W 118°11'1 1.2
2017-Aug-11 12:00N 33°44' W 118°11'5 9.2
2017-Aug-11 11:30N 33°40' W 118°11'4 7.4
2017-Aug-11 11:00N 33°36' W 118°10'4 7.3
2017-Aug-11 10:30N 33°33' W 118°08'4 7.2
2017-Aug-11 10:00N 33°29' W 118°07'3 6.9
2017-Aug-11 09:30N 33°26' W 118°06'3 6.8
2017-Aug-11 09:00N 33°23' W 118°04'4 7.0
2017-Aug-11 08:30N 33°20' W 118°03'3 6.9
2017-Aug-11 08:00N 33°16' W 118°01'3 6.9
2017-Aug-11 07:30N 33°13' W 117°60'4 7.6
2017-Aug-11 07:00N 33°10' W 117°58'4 8.8
2017-Aug-11 06:30N 33°05' W 117°57'4 8.7
2017-Aug-11 06:00N 33°01' W 117°55'4 8.7
2017-Aug-11 05:30N 32°57' W 117°53'4 8.6
2017-Aug-11 05:00N 32°53' W 117°51'4 8.4
2017-Aug-11 04:30N 32°49' W 117°50'4 8.3
2017-Aug-11 04:00N 32°45' W 117°48'4 8.3
2017-Aug-11 03:30N 32°41' W 117°46'4 8.3
2017-Aug-11 03:00N 32°38' W 117°44'4 8.1
2017-Aug-11 02:30N 32°34' W 117°43'4 7.9
2017-Aug-11 02:00N 32°30' W 117°42'8508.5
2017-Aug-11 02:00N 32°24' W 117°36'4 8.7 320 / 151015.2 5.4 18.014.823.0
2017-Aug-11 01:30N 32°26' W 117°40'4 8.0
2017-Aug-11 01:00N 32°22' W 117°39'4 7.6
2017-Aug-11 00:30N 32°19' W 117°37'4 7.7
2017-Aug-11 00:00N 32°15' W 117°35'4 7.9
2017-Aug-10 23:30N 32°12' W 117°33'4 7.9
2017-Aug-10 23:00N 32°08' W 117°31'4 8.0
2017-Aug-10 22:30N 32°05' W 117°29'4 7.3
2017-Aug-10 22:00N 32°02' W 117°27'4 7.4
2017-Aug-10 21:30N 31°58' W 117°25'4 7.3
2017-Aug-10 21:00N 31°55' W 117°23'4 7.3
2017-Aug-10 20:30N 31°51' W 117°22'4 7.7
2017-Aug-10 20:00N 31°49' W 117°26'4 8.5
2017-Aug-10 19:30N 31°48' W 117°31'4 8.5
2017-Aug-10 19:00N 31°47' W 117°35'4 8.5
2017-Aug-10 18:30N 31°46' W 117°40'  

Dump ship's entire track history